Time;durP1;ratioP1;P1;durP2;ratioP2;P2;SDS_P1;SDS_P2;PMS_P1;PMS_P2;Temp;Humidity;BMP_temperature;BMP_pressure;BME280_temperature;BME280_humidity;BME280_pressure;Samples;Min_cycle;Max_cycle;Signal;HPM_P1;HPM_P2
2023/06/29 00:01:57;;;;;;;11.40;10.30;;;17.00;1.00;;;;;;4961893;28;20540;-71
2023/06/29 00:04:25;;;;;;;11.87;10.77;;;17.00;1.00;;;;;;4959902;28;20535;-69
2023/06/29 00:06:55;;;;;;;10.20;9.30;;;17.00;1.00;;;;;;4963451;28;20479;-70
2023/06/29 00:09:23;;;;;;;11.53;10.30;;;16.90;1.00;;;;;;4965952;28;20425;-70
2023/06/29 00:11:50;;;;;;;11.13;10.03;;;17.00;1.00;;;;;;4967417;28;20493;-70
2023/06/29 00:14:19;;;;;;;10.27;9.27;;;17.00;1.00;;;;;;4964101;28;20553;-69
2023/06/29 00:16:45;;;;;;;10.97;10.07;;;17.10;1.00;;;;;;4956799;28;20935;-72
2023/06/29 00:19:14;;;;;;;11.50;10.50;;;17.10;1.00;;;;;;4959216;28;20443;-71
2023/06/29 00:21:41;;;;;;;11.47;10.27;;;17.10;1.00;;;;;;4957041;28;20976;-71
2023/06/29 00:24:10;;;;;;;11.30;10.13;;;17.00;1.00;;;;;;4960361;28;20452;-73
2023/06/29 00:26:42;;;;;;;12.00;10.90;;;17.00;1.00;;;;;;4963380;28;20475;-71
2023/06/29 00:29:09;;;;;;;10.60;9.50;;;16.90;1.00;;;;;;4958267;28;20476;-71
2023/06/29 00:31:36;;;;;;;11.83;10.63;;;16.90;1.00;;;;;;4958561;28;21082;-70
2023/06/29 00:34:03;;;;;;;11.30;10.37;;;16.80;1.00;;;;;;4956358;28;20560;-71
2023/06/29 00:36:30;;;;;;;11.07;9.97;;;16.80;1.00;;;;;;4957091;28;21124;-71
2023/06/29 00:38:57;;;;;;;10.30;9.37;;;16.80;1.00;;;;;;4955541;28;20819;-70
2023/06/29 00:41:24;;;;;;;11.17;10.17;;;16.80;1.00;;;;;;4962165;28;20489;-71
2023/06/29 00:43:53;;;;;;;11.67;10.13;;;16.70;1.00;;;;;;4967227;28;20970;-70
2023/06/29 00:46:21;;;;;;;11.47;10.20;;;16.70;1.00;;;;;;4967761;28;20971;-70
2023/06/29 00:48:48;;;;;;;10.83;9.83;;;16.60;1.00;;;;;;4964713;28;20464;-70
2023/06/29 00:51:16;;;;;;;11.13;10.03;;;16.60;1.00;;;;;;4964142;28;20852;-70
2023/06/29 00:53:44;;;;;;;11.30;10.30;;;16.60;1.00;;;;;;4960995;28;20460;-71
2023/06/29 00:56:11;;;;;;;11.77;10.47;;;16.60;1.00;;;;;;4968284;28;20912;-71
2023/06/29 00:58:38;;;;;;;11.70;10.33;;;16.60;1.00;;;;;;4958490;28;20459;-71
2023/06/29 01:01:11;;;;;;;10.83;9.77;;;16.60;1.00;;;;;;4974684;23;20633;-82
2023/06/29 01:03:40;;;;;;;10.40;9.50;;;16.60;1.00;;;;;;4972855;28;20424;-81
2023/06/29 01:06:12;;;;;;;10.57;9.50;;;16.60;1.00;;;;;;4976765;28;20587;-80
2023/06/29 01:08:47;;;;;;;11.17;9.60;;;16.50;1.00;;;;;;4976372;28;20491;-81
2023/06/29 01:11:18;;;;;;;11.37;10.37;;;16.50;1.00;;;;;;4975086;28;20444;-81
2023/06/29 01:13:51;;;;;;;11.10;9.87;;;16.40;1.00;;;;;;4977807;28;20440;-80
2023/06/29 01:16:32;;;;;;;10.83;9.80;;;16.30;1.00;;;;;;4978501;28;20431;-81
2023/06/29 01:19:04;;;;;;;11.03;10.03;;;16.30;1.00;;;;;;4978827;28;20459;-81
2023/06/29 01:21:37;;;;;;;10.53;9.53;;;16.30;1.00;;;;;;4975062;28;20437;-82
2023/06/29 01:24:08;;;;;;;11.40;10.30;;;16.20;1.00;;;;;;4958678;28;20981;-82
2023/06/29 01:26:38;;;;;;;11.37;10.33;;;16.10;1.00;;;;;;4979626;28;20459;-81
2023/06/29 01:29:07;;;;;;;11.90;10.47;;;16.10;1.00;;;;;;4976258;28;20410;-81
2023/06/29 01:31:34;;;;;;;11.83;10.17;;;16.10;1.00;;;;;;4972771;28;20491;-81
2023/06/29 01:34:03;;;;;;;11.00;9.80;;;16.10;1.00;;;;;;4974129;28;20471;-81
2023/06/29 01:36:38;;;;;;;11.30;10.20;;;16.10;1.00;;;;;;4977430;28;20472;-80
2023/06/29 01:39:11;;;;;;;11.17;10.20;;;16.10;1.00;;;;;;4971927;28;20583;-79
2023/06/29 01:41:42;;;;;;;12.70;11.40;;;16.10;1.00;;;;;;4976467;28;20483;-80
2023/06/29 01:44:15;;;;;;;11.27;10.27;;;16.10;1.00;;;;;;4968047;28;20467;-80
2023/06/29 01:46:46;;;;;;;11.63;10.57;;;16.00;1.00;;;;;;4979389;28;20537;-81
2023/06/29 01:49:14;;;;;;;11.90;10.23;;;16.00;1.00;;;;;;4980353;28;20429;-81
2023/06/29 01:51:41;;;;;;;11.03;10.10;;;16.00;1.00;;;;;;4969244;28;20497;-81
2023/06/29 01:54:08;;;;;;;11.47;10.40;;;16.00;1.00;;;;;;4978599;28;20495;-81
2023/06/29 01:56:41;;;;;;;11.40;10.20;;;16.00;1.00;;;;;;4975401;28;20471;-81
2023/06/29 01:59:11;;;;;;;11.77;10.57;;;16.00;1.00;;;;;;4978140;28;20515;-81
2023/06/29 02:01:42;;;;;;;12.17;11.03;;;15.90;1.00;;;;;;4974811;28;20630;-81
2023/06/29 02:04:09;;;;;;;10.50;9.60;;;15.90;1.00;;;;;;4974894;28;20460;-81
2023/06/29 02:06:36;;;;;;;11.97;10.50;;;15.90;1.00;;;;;;4976013;28;20473;-81
2023/06/29 02:09:06;;;;;;;11.23;10.20;;;15.90;1.00;;;;;;4978767;28;20558;-80
2023/06/29 02:11:32;;;;;;;10.53;9.50;;;15.80;1.00;;;;;;4979589;28;20476;-83
2023/06/29 02:14:01;;;;;;;12.93;11.50;;;15.70;1.00;;;;;;4974496;28;20478;-81
2023/06/29 02:16:28;;;;;;;10.97;9.80;;;15.80;1.00;;;;;;4973164;28;20436;-81
2023/06/29 02:18:56;;;;;;;13.37;10.40;;;15.70;1.00;;;;;;4961949;28;20475;-81
2023/06/29 02:21:24;;;;;;;10.83;9.77;;;15.70;1.00;;;;;;4965226;28;20439;-82
2023/06/29 02:23:56;;;;;;;9.73;8.80;;;15.70;1.00;;;;;;4970077;28;20441;-81
2023/06/29 02:26:28;;;;;;;9.97;8.97;;;15.60;1.00;;;;;;4973798;28;20998;-79
2023/06/29 02:28:55;;;;;;;10.23;9.43;;;15.70;1.00;;;;;;4976926;28;20549;-81
2023/06/29 02:31:31;;;;;;;10.10;9.20;;;15.60;1.00;;;;;;4976828;28;20541;-81
2023/06/29 02:33:58;;;;;;;10.67;9.67;;;15.60;1.00;;;;;;4974645;28;20465;-82
2023/06/29 02:36:25;;;;;;;10.53;9.47;;;15.50;1.00;;;;;;4975437;28;20467;-80
2023/06/29 02:38:55;;;;;;;12.13;10.37;;;15.60;1.00;;;;;;4977426;28;20601;-81
2023/06/29 02:41:23;;;;;;;11.17;10.17;;;15.50;1.00;;;;;;4977190;28;20451;-80
2023/06/29 02:43:53;;;;;;;11.00;10.07;;;15.50;1.00;;;;;;4972764;28;20496;-80
2023/06/29 02:46:26;;;;;;;10.47;9.47;;;15.50;1.00;;;;;;4983599;28;20568;-81
2023/06/29 02:48:54;;;;;;;11.70;10.60;;;15.50;1.00;;;;;;4978050;28;20453;-80
2023/06/29 02:51:21;;;;;;;15.13;10.57;;;15.50;1.00;;;;;;4976971;28;20993;-82
2023/06/29 02:53:50;;;;;;;11.53;10.17;;;15.40;1.00;;;;;;4978053;28;20477;-81
2023/06/29 02:56:19;;;;;;;10.77;9.70;;;15.40;1.00;;;;;;4978087;28;20460;-80
2023/06/29 02:58:46;;;;;;;10.90;10.00;;;15.40;1.00;;;;;;4980904;28;20474;-80
2023/06/29 03:01:15;;;;;;;10.67;9.77;;;15.50;1.00;;;;;;4973459;28;20445;-81
2023/06/29 03:03:44;;;;;;;13.30;9.80;;;15.40;1.00;;;;;;4981279;28;20451;-81
2023/06/29 03:06:13;;;;;;;10.13;9.27;;;15.40;1.00;;;;;;4980613;28;20518;-81
2023/06/29 03:08:42;;;;;;;9.93;9.00;;;15.50;1.00;;;;;;4975305;28;20465;-81
2023/06/29 03:11:09;;;;;;;11.70;9.80;;;15.50;1.00;;;;;;4975639;28;20505;-80
2023/06/29 03:13:36;;;;;;;11.17;9.80;;;15.50;1.00;;;;;;4983080;28;20439;-81
2023/06/29 03:16:06;;;;;;;11.20;10.23;;;15.50;1.00;;;;;;4981635;28;20524;-82
2023/06/29 03:18:36;;;;;;;9.67;8.77;;;15.40;1.00;;;;;;4976809;28;20460;-80
2023/06/29 03:21:06;;;;;;;11.40;10.30;;;15.40;1.00;;;;;;4984330;28;20547;-80
2023/06/29 03:23:37;;;;;;;11.20;10.10;;;15.40;1.00;;;;;;4978596;28;20503;-81
2023/06/29 03:26:04;;;;;;;14.17;10.80;;;15.50;1.00;;;;;;4983004;28;20461;-82
2023/06/29 03:28:33;;;;;;;10.00;9.00;;;15.50;1.00;;;;;;4981743;28;20469;-80
2023/06/29 03:31:00;;;;;;;15.30;10.77;;;15.60;1.00;;;;;;4981352;28;20484;-82
2023/06/29 03:33:27;;;;;;;10.60;9.60;;;15.60;1.00;;;;;;4978667;28;20910;-83
2023/06/29 03:35:55;;;;;;;10.67;9.67;;;15.60;1.00;;;;;;4965546;28;20459;-81
2023/06/29 03:38:23;;;;;;;10.53;9.43;;;15.60;1.00;;;;;;4979070;28;20594;-83
2023/06/29 03:40:55;;;;;;;10.90;9.90;;;15.60;1.00;;;;;;4977675;28;20500;-81
2023/06/29 03:43:22;;;;;;;11.80;10.70;;;15.60;1.00;;;;;;4978778;28;20888;-80
2023/06/29 03:45:49;;;;;;;12.17;10.97;;;15.60;1.00;;;;;;4980275;28;20480;-79
2023/06/29 03:48:16;;;;;;;14.87;11.27;;;15.60;1.00;;;;;;4974829;28;20542;-80
2023/06/29 03:50:44;;;;;;;12.83;11.73;;;15.70;1.00;;;;;;4979698;28;20483;-81
2023/06/29 03:53:12;;;;;;;12.33;11.13;;;15.90;1.00;;;;;;4968374;28;20472;-81
2023/06/29 03:55:40;;;;;;;12.90;11.70;;;15.90;1.00;;;;;;4975330;28;20488;-79
2023/06/29 03:58:10;;;;;;;11.80;10.77;;;16.10;1.00;;;;;;4981920;28;20465;-80
2023/06/29 04:00:37;;;;;;;11.93;10.93;;;16.10;1.00;;;;;;4977577;28;20494;-80
2023/06/29 04:03:05;;;;;;;13.47;11.80;;;16.20;1.00;;;;;;4972727;28;20791;-81
2023/06/29 04:05:35;;;;;;;12.53;11.37;;;16.10;1.00;;;;;;4971682;28;20468;-82
2023/06/29 04:08:04;;;;;;;12.47;11.40;;;16.20;1.00;;;;;;4978331;28;20471;-81
2023/06/29 04:10:32;;;;;;;12.70;11.60;;;16.20;1.00;;;;;;4974227;28;20468;-81
2023/06/29 04:12:59;;;;;;;14.67;12.90;;;16.20;1.00;;;;;;4974322;28;20464;-79
2023/06/29 04:15:30;;;;;;;14.30;12.33;;;16.20;1.00;;;;;;4976184;28;20464;-81
2023/06/29 04:17:57;;;;;;;13.20;11.90;;;16.20;1.00;;;;;;4976586;28;20452;-81
2023/06/29 04:20:37;;;;;;;13.10;10.50;;;16.30;1.00;;;;;;4977847;28;20443;-82
2023/06/29 04:23:04;;;;;;;18.10;13.20;;;16.40;1.00;;;;;;4977599;28;20436;-81
2023/06/29 04:25:33;;;;;;;16.03;13.67;;;16.50;1.00;;;;;;4977595;28;20465;-82
2023/06/29 04:28:05;;;;;;;13.10;11.93;;;16.80;1.00;;;;;;4964025;28;20476;-82
2023/06/29 04:30:37;;;;;;;12.10;11.00;;;16.90;1.00;;;;;;4970321;28;20449;-81
2023/06/29 04:33:09;;;;;;;13.87;11.93;;;17.10;1.00;;;;;;4966684;28;20487;-80
2023/06/29 04:35:36;;;;;;;11.13;10.27;;;17.40;1.00;;;;;;4968665;28;20497;-82
2023/06/29 04:38:07;;;;;;;10.90;9.90;;;17.70;1.00;;;;;;4970924;28;20493;-81
2023/06/29 04:40:35;;;;;;;9.60;8.90;;;17.90;1.00;;;;;;4969013;28;21009;-81
2023/06/29 04:43:03;;;;;;;12.23;9.87;;;18.00;1.00;;;;;;4979179;28;20469;-82
2023/06/29 04:45:33;;;;;;;9.77;8.87;;;18.10;1.00;;;;;;4981629;28;20462;-81
2023/06/29 04:48:01;;;;;;;10.57;9.63;;;18.10;1.00;;;;;;4959600;28;20498;-80
2023/06/29 04:50:35;;;;;;;11.67;10.47;;;18.10;1.00;;;;;;4978530;28;20485;-80
2023/06/29 04:53:09;;;;;;;15.50;10.67;;;18.10;1.00;;;;;;4977104;28;21160;-81
2023/06/29 04:55:37;;;;;;;12.83;11.20;;;18.00;1.00;;;;;;4976322;28;20471;-82
2023/06/29 04:58:05;;;;;;;10.00;9.27;;;18.10;1.00;;;;;;4973513;28;20419;-82
2023/06/29 05:00:34;;;;;;;9.93;8.83;;;18.00;1.00;;;;;;4975434;28;20476;-81
2023/06/29 05:05:45;;;;;;;12.03;10.80;;;18.00;1.00;;;;;;4974414;28;20467;-80
2023/06/29 05:08:14;;;;;;;13.13;10.03;;;18.00;1.00;;;;;;4973616;28;20655;-80
2023/06/29 05:10:41;;;;;;;10.00;9.00;;;18.10;1.00;;;;;;4957697;28;20489;-80
2023/06/29 05:13:08;;;;;;;10.20;9.20;;;18.20;1.00;;;;;;4971483;28;20467;-81
2023/06/29 05:15:37;;;;;;;11.80;9.17;;;18.30;1.00;;;;;;4978348;28;20470;-83
2023/06/29 05:18:06;;;;;;;10.40;9.50;;;18.40;1.00;;;;;;4978335;28;20489;-82
2023/06/29 05:20:33;;;;;;;10.37;8.80;;;18.60;1.00;;;;;;4975098;28;20453;-80
2023/06/29 05:23:02;;;;;;;9.57;8.67;;;18.60;1.00;;;;;;4973898;28;20472;-80
2023/06/29 05:25:29;;;;;;;9.63;8.73;;;18.80;1.00;;;;;;4969259;28;20545;-81
2023/06/29 05:27:56;;;;;;;8.57;7.77;;;18.90;1.00;;;;;;4974719;28;20449;-82
2023/06/29 05:30:23;;;;;;;8.60;6.60;;;19.10;1.00;;;;;;4955369;28;21238;-80
2023/06/29 05:32:52;;;;;;;7.90;7.30;;;19.40;1.00;;;;;;4975163;28;20465;-82
2023/06/29 05:35:19;;;;;;;8.63;7.73;;;19.60;1.00;;;;;;4977257;28;20506;-81
2023/06/29 05:37:47;;;;;;;9.13;8.30;;;19.80;1.00;;;;;;4943810;28;20484;-79
2023/06/29 05:40:15;;;;;;;12.90;7.90;;;20.10;1.00;;;;;;4968951;28;20615;-81
2023/06/29 05:42:42;;;;;;;8.83;7.90;;;20.30;1.00;;;;;;4979664;28;20624;-80
2023/06/29 05:45:12;;;;;;;8.13;6.80;;;20.50;1.00;;;;;;4976233;28;20471;-81
2023/06/29 05:47:40;;;;;;;9.83;8.80;;;20.70;1.00;;;;;;4976580;28;20570;-81
2023/06/29 05:50:11;;;;;;;7.83;7.03;;;20.80;1.00;;;;;;4964119;28;20464;-81
2023/06/29 05:52:39;;;;;;;7.80;7.00;;;21.00;1.00;;;;;;4976786;28;20467;-82
2023/06/29 05:55:07;;;;;;;7.80;7.10;;;21.20;1.00;;;;;;4975914;28;20454;-80
2023/06/29 05:57:42;;;;;;;10.53;7.80;;;21.30;1.00;;;;;;4964512;28;21281;-81
2023/06/29 06:00:13;;;;;;;6.60;6.00;;;21.40;1.00;;;;;;4969572;28;20524;-81
2023/06/29 06:02:42;;;;;;;6.90;6.17;;;21.40;1.00;;;;;;4972180;28;20944;-81
2023/06/29 06:05:20;;;;;;;9.00;6.70;;;21.50;1.00;;;;;;4970299;28;20467;-81
2023/06/29 06:07:49;;;;;;;8.73;6.67;;;21.60;1.00;;;;;;4964715;28;20510;-82
2023/06/29 06:10:18;;;;;;;7.30;6.60;;;21.70;1.00;;;;;;4975454;28;20558;-81
2023/06/29 06:12:45;;;;;;;6.70;5.60;;;21.70;1.00;;;;;;4985539;23;20446;-74
2023/06/29 06:15:14;;;;;;;7.33;6.20;;;21.70;1.00;;;;;;4960723;28;20463;-74
2023/06/29 06:17:41;;;;;;;7.23;6.53;;;21.70;1.00;;;;;;4964010;28;20632;-74
2023/06/29 06:20:10;;;;;;;12.50;11.23;;;21.70;1.00;;;;;;4964611;28;20928;-75
2023/06/29 06:22:38;;;;;;;7.07;6.37;;;21.70;1.00;;;;;;4964520;28;20545;-74
2023/06/29 06:25:06;;;;;;;6.67;6.07;;;21.60;1.00;;;;;;4968007;28;20537;-76
2023/06/29 06:27:32;;;;;;;6.33;5.83;;;21.60;1.00;;;;;;4962805;28;20488;-77
2023/06/29 06:30:00;;;;;;;8.27;7.40;;;21.80;1.00;;;;;;4964062;28;20616;-74
2023/06/29 06:32:26;;;;;;;8.10;6.63;;;21.80;1.00;;;;;;4971534;28;20428;-74
2023/06/29 06:34:54;;;;;;;6.87;6.27;;;21.90;1.00;;;;;;4966048;28;20478;-73
2023/06/29 06:37:21;;;;;;;6.60;5.77;;;22.10;1.00;;;;;;4961915;28;20463;-74
2023/06/29 06:39:49;;;;;;;5.80;5.23;;;22.10;1.00;;;;;;4967939;28;20602;-73
2023/06/29 06:42:16;;;;;;;5.87;5.37;;;22.20;1.00;;;;;;4968577;28;20549;-74
2023/06/29 06:44:51;;;;;;;5.13;4.60;;;22.20;1.00;;;;;;4960161;28;21126;-73
2023/06/29 06:47:18;;;;;;;7.73;6.30;;;22.30;1.00;;;;;;4965835;28;21788;-73
2023/06/29 06:49:47;;;;;;;5.10;4.50;;;22.30;1.00;;;;;;4958243;28;20613;-73
2023/06/29 06:52:14;;;;;;;5.03;4.50;;;22.40;1.00;;;;;;4969954;28;20688;-75
2023/06/29 06:54:41;;;;;;;5.67;4.60;;;22.40;1.00;;;;;;4967031;28;20476;-73
2023/06/29 06:57:09;;;;;;;5.20;4.70;;;22.20;1.00;;;;;;4970923;28;20943;-73
2023/06/29 06:59:36;;;;;;;5.10;4.50;;;22.30;1.00;;;;;;4965061;28;20436;-73
2023/06/29 07:02:03;;;;;;;6.93;5.43;;;22.50;1.00;;;;;;4964046;28;20475;-74
2023/06/29 07:04:30;;;;;;;6.67;4.57;;;22.90;1.00;;;;;;4968053;28;21283;-74
2023/06/29 07:06:57;;;;;;;7.10;5.57;;;23.00;1.00;;;;;;4972613;28;20468;-73
2023/06/29 07:09:24;;;;;;;8.90;5.30;;;23.00;1.00;;;;;;4971359;28;20509;-74
2023/06/29 07:11:51;;;;;;;5.40;4.90;;;23.40;1.00;;;;;;4968548;28;21778;-75
2023/06/29 07:14:21;;;;;;;3.57;3.17;;;23.60;1.00;;;;;;4957930;28;20509;-74
2023/06/29 07:16:48;;;;;;;6.20;3.50;;;23.80;1.00;;;;;;4958853;28;20456;-73
2023/06/29 07:19:16;;;;;;;5.60;3.37;;;24.10;1.00;;;;;;4961616;28;20501;-73
2023/06/29 07:21:43;;;;;;;4.17;3.60;;;24.50;1.00;;;;;;4967775;28;20492;-74
2023/06/29 07:24:11;;;;;;;3.30;2.80;;;24.80;1.00;;;;;;4967976;28;20452;-73
2023/06/29 07:26:38;;;;;;;3.63;3.30;;;24.90;1.00;;;;;;4972689;28;20473;-74
2023/06/29 07:29:06;;;;;;;3.67;3.33;;;24.90;1.00;;;;;;4966741;28;20462;-74
2023/06/29 07:31:35;;;;;;;4.47;4.00;;;25.00;1.00;;;;;;4968921;28;20490;-75
2023/06/29 07:34:02;;;;;;;4.50;3.27;;;25.10;1.00;;;;;;4967051;28;20469;-74
2023/06/29 07:36:29;;;;;;;6.37;4.00;;;25.10;1.00;;;;;;4965494;28;20828;-73
2023/06/29 07:38:56;;;;;;;4.90;3.10;;;25.10;1.00;;;;;;4954090;28;20876;-75
2023/06/29 07:41:23;;;;;;;5.33;4.83;;;25.00;1.00;;;;;;4954411;28;20963;-73
2023/06/29 07:43:53;;;;;;;6.93;3.87;;;24.90;1.00;;;;;;4952544;28;20470;-74
2023/06/29 07:46:20;;;;;;;3.60;3.20;;;24.80;1.00;;;;;;4953385;28;20462;-73
2023/06/29 07:48:49;;;;;;;5.20;4.00;;;24.70;1.00;;;;;;4959391;28;20480;-74
2023/06/29 07:51:16;;;;;;;2.97;2.30;;;24.70;1.00;;;;;;4967460;28;20459;-73
2023/06/29 07:53:43;;;;;;;3.07;2.77;;;24.80;1.00;;;;;;4969290;28;20517;-72
2023/06/29 07:56:11;;;;;;;3.83;3.33;;;24.90;1.00;;;;;;4966627;28;20551;-75
2023/06/29 07:58:38;;;;;;;5.07;3.33;;;25.00;1.00;;;;;;4965930;28;20499;-74
2023/06/29 08:01:05;;;;;;;3.37;3.10;;;25.10;1.00;;;;;;4966423;28;20527;-72
2023/06/29 08:03:32;;;;;;;4.30;3.30;;;25.30;1.00;;;;;;4963936;28;20496;-74
2023/06/29 08:06:00;;;;;;;3.83;2.67;;;25.50;1.00;;;;;;4961891;28;20465;-73
2023/06/29 08:08:29;;;;;;;4.53;2.90;;;25.40;1.00;;;;;;4964027;28;20477;-73
2023/06/29 08:10:58;;;;;;;2.77;2.43;;;25.40;1.00;;;;;;4965866;28;20465;-75
2023/06/29 08:13:28;;;;;;;3.33;2.80;;;25.40;1.00;;;;;;4967662;28;20560;-74
2023/06/29 08:15:55;;;;;;;4.57;3.10;;;25.40;1.00;;;;;;4966332;28;22329;-73
2023/06/29 08:18:22;;;;;;;3.53;3.23;;;25.40;1.00;;;;;;4954699;28;21039;-73
2023/06/29 08:20:49;;;;;;;3.33;2.67;;;25.50;1.00;;;;;;4940289;28;20540;-74
2023/06/29 08:23:18;;;;;;;6.70;3.40;;;25.50;1.00;;;;;;4962265;28;20468;-74
2023/06/29 08:25:45;;;;;;;2.77;2.57;;;25.50;1.00;;;;;;4949186;28;21657;-74
2023/06/29 08:28:12;;;;;;;3.27;2.53;;;25.50;1.00;;;;;;4947815;28;20478;-73
2023/06/29 08:30:39;;;;;;;4.10;3.40;;;25.60;1.00;;;;;;4946634;28;20974;-73
2023/06/29 08:33:06;;;;;;;3.00;2.80;;;25.60;1.00;;;;;;4948626;28;21091;-74
2023/06/29 08:35:34;;;;;;;2.90;2.70;;;25.70;1.00;;;;;;4950512;28;20461;-72
2023/06/29 08:38:01;;;;;;;6.00;3.40;;;25.80;1.00;;;;;;4961830;28;20502;-73
2023/06/29 08:40:35;;;;;;;3.77;2.90;;;25.90;1.00;;;;;;4966677;28;20976;-74
2023/06/29 08:43:03;;;;;;;4.10;2.93;;;26.00;1.00;;;;;;4963468;28;20545;-74
2023/06/29 08:45:30;;;;;;;4.20;3.70;;;25.90;1.00;;;;;;4965202;28;20503;-75
2023/06/29 08:47:57;;;;;;;4.80;2.80;;;25.80;1.00;;;;;;4965553;28;20573;-74
2023/06/29 08:50:29;;;;;;;3.13;2.43;;;25.60;1.00;;;;;;4967691;28;20818;-74
2023/06/29 08:52:57;;;;;;;5.23;3.47;;;25.60;1.00;;;;;;4959648;28;20461;-74
2023/06/29 08:55:25;;;;;;;2.57;2.33;;;25.60;1.00;;;;;;4968541;28;20873;-74
2023/06/29 08:57:55;;;;;;;3.07;2.77;;;25.50;1.00;;;;;;4967282;28;20865;-74
2023/06/29 09:00:24;;;;;;;5.63;3.43;;;25.40;1.00;;;;;;4957126;28;20470;-74
2023/06/29 09:02:53;;;;;;;3.73;3.30;;;25.30;1.00;;;;;;4964985;28;20906;-75
2023/06/29 09:05:21;;;;;;;4.73;3.80;;;25.30;1.00;;;;;;4976165;28;21123;-74
2023/06/29 09:07:50;;;;;;;5.63;3.43;;;25.40;1.00;;;;;;4964653;28;21016;-74
2023/06/29 09:10:17;;;;;;;3.80;3.50;;;25.50;1.00;;;;;;4969833;28;20485;-74
2023/06/29 09:12:44;;;;;;;4.17;3.20;;;25.50;1.00;;;;;;4966771;28;20489;-74
2023/06/29 09:15:13;;;;;;;5.60;3.73;;;25.50;1.00;;;;;;4968281;28;20909;-75
2023/06/29 09:17:45;;;;;;;4.90;4.30;;;25.40;1.00;;;;;;4968993;28;20516;-74
2023/06/29 09:20:15;;;;;;;6.13;3.47;;;25.40;1.00;;;;;;4971536;28;20554;-74
2023/06/29 09:22:43;;;;;;;3.43;2.60;;;25.60;1.00;;;;;;4966489;28;20467;-74
2023/06/29 09:25:13;;;;;;;6.57;3.40;;;25.70;1.00;;;;;;4969114;28;20455;-75
2023/06/29 09:27:40;;;;;;;3.00;2.63;;;25.60;1.00;;;;;;4968866;28;20539;-74
2023/06/29 09:30:08;;;;;;;4.10;3.70;;;25.60;1.00;;;;;;4963078;28;20464;-75
2023/06/29 09:32:39;;;;;;;4.57;2.30;;;25.70;1.00;;;;;;4967139;28;20567;-75
2023/06/29 09:35:08;;;;;;;1.90;1.70;;;25.70;1.00;;;;;;4968387;28;20446;-74
2023/06/29 09:37:35;;;;;;;3.43;1.67;;;25.80;1.00;;;;;;4971981;28;20469;-75
2023/06/29 09:40:09;;;;;;;2.10;1.90;;;25.80;1.00;;;;;;4957568;28;20532;-74
2023/06/29 09:42:42;;;;;;;2.60;2.10;;;25.80;1.00;;;;;;4965246;28;20469;-76
2023/06/29 09:45:12;;;;;;;2.80;2.43;;;25.90;1.00;;;;;;4965311;28;20452;-74
2023/06/29 09:47:42;;;;;;;2.60;2.20;;;26.10;1.00;;;;;;4966824;28;20956;-75
2023/06/29 09:50:19;;;;;;;2.53;2.17;;;26.10;1.00;;;;;;4964574;28;20527;-74
2023/06/29 09:52:46;;;;;;;3.13;2.93;;;26.20;1.00;;;;;;4966019;28;20560;-74
2023/06/29 09:55:14;;;;;;;2.40;2.20;;;26.40;1.00;;;;;;4964806;28;20466;-75
2023/06/29 09:57:42;;;;;;;4.17;2.57;;;26.30;1.00;;;;;;4967760;28;21309;-74
2023/06/29 10:00:12;;;;;;;3.20;2.57;;;26.40;1.00;;;;;;4967406;28;20460;-73
2023/06/29 10:02:40;;;;;;;5.33;4.00;;;26.50;1.00;;;;;;4964807;28;20475;-74
2023/06/29 10:05:08;;;;;;;3.97;3.63;;;27.00;1.00;;;;;;4970420;28;20457;-75
2023/06/29 10:07:38;;;;;;;2.90;2.33;;;27.60;1.00;;;;;;4966047;28;20554;-74
2023/06/29 10:10:08;;;;;;;2.50;2.30;;;28.10;1.00;;;;;;4956871;28;20526;-74
2023/06/29 10:12:35;;;;;;;3.47;2.33;;;28.80;1.00;;;;;;4968157;28;20471;-75
2023/06/29 10:15:08;;;;;;;2.33;2.13;;;29.30;1.00;;;;;;4968476;28;20456;-76
2023/06/29 10:17:44;;;;;;;3.03;2.83;;;29.40;1.00;;;;;;4965978;28;20479;-74
2023/06/29 10:20:15;;;;;;;6.13;2.10;;;29.40;1.00;;;;;;4959433;28;20463;-75
2023/06/29 10:22:43;;;;;;;3.00;2.17;;;29.50;1.00;;;;;;4971846;28;20455;-74
2023/06/29 10:25:15;;;;;;;3.67;3.10;;;29.70;1.00;;;;;;4970615;28;20436;-74
2023/06/29 10:27:43;;;;;;;2.50;2.30;;;29.80;1.00;;;;;;4963413;28;20567;-74
2023/06/29 10:30:11;;;;;;;2.83;2.40;;;29.80;1.00;;;;;;4957186;28;20459;-75
2023/06/29 10:32:39;;;;;;;1.97;1.83;;;29.50;1.00;;;;;;4959251;28;20498;-75
2023/06/29 10:35:09;;;;;;;2.57;2.37;;;29.50;1.00;;;;;;4955936;28;20474;-75
2023/06/29 10:37:37;;;;;;;2.53;1.80;;;29.70;1.00;;;;;;4967730;28;20476;-75
2023/06/29 10:40:13;;;;;;;4.57;4.23;;;29.80;1.00;;;;;;4963826;28;20470;-75
2023/06/29 10:42:58;;;;;;;3.20;2.53;;;30.00;1.00;;;;;;4966172;28;20899;-74
2023/06/29 10:45:43;;;;;;;2.80;2.60;;;30.30;1.00;;;;;;4961343;28;20657;-75
2023/06/29 10:48:14;;;;;;;6.00;5.40;;;30.70;1.00;;;;;;4966055;28;20558;-75
2023/06/29 10:50:44;;;;;;;3.47;3.17;;;31.50;1.00;;;;;;4957971;28;20452;-76
2023/06/29 10:53:13;;;;;;;4.47;4.07;;;33.30;1.00;;;;;;4966688;28;20458;-76
2023/06/29 10:55:42;;;;;;;2.70;2.50;;;34.60;1.00;;;;;;4966199;28;20559;-76
2023/06/29 10:58:21;;;;;;;3.30;2.90;;;34.30;1.00;;;;;;4951561;28;20527;-75
2023/06/29 11:00:51;;;;;;;3.50;2.80;;;34.60;1.00;;;;;;4957729;28;20460;-74
2023/06/29 11:03:19;;;;;;;3.37;2.87;;;35.50;1.00;;;;;;4959700;28;20459;-75
2023/06/29 11:05:50;;;;;;;4.87;2.83;;;36.20;1.00;;;;;;4964295;28;21336;-75
2023/06/29 11:08:17;;;;;;;3.47;3.00;;;36.30;1.00;;;;;;4972921;28;20475;-75
2023/06/29 11:10:45;;;;;;;2.60;2.40;;;37.20;1.00;;;;;;4970603;28;20440;-74
2023/06/29 11:13:13;;;;;;;4.17;3.33;;;37.80;1.00;;;;;;4969811;28;20448;-75
2023/06/29 11:15:41;;;;;;;3.80;3.50;;;36.80;1.00;;;;;;4973024;28;20748;-75
2023/06/29 11:18:09;;;;;;;3.03;2.67;;;36.20;1.00;;;;;;4971686;28;20531;-76
2023/06/29 11:20:40;;;;;;;3.80;3.10;;;35.70;1.00;;;;;;4969991;28;20471;-75
2023/06/29 11:23:08;;;;;;;3.93;3.00;;;34.90;1.00;;;;;;4965435;28;20598;-76
2023/06/29 11:25:37;;;;;;;3.93;3.63;;;34.40;1.00;;;;;;4967352;28;20877;-74
2023/06/29 11:28:04;;;;;;;4.23;3.93;;;33.90;1.00;;;;;;4971180;28;21083;-75
2023/06/29 11:30:31;;;;;;;23.63;21.43;;;33.60;1.00;;;;;;4967944;28;20462;-75
2023/06/29 11:33:00;;;;;;;4.77;4.33;;;33.60;1.00;;;;;;4966028;28;20978;-76
2023/06/29 11:35:27;;;;;;;4.20;3.30;;;33.20;1.00;;;;;;4972920;28;20512;-76
2023/06/29 11:38:00;;;;;;;6.37;4.20;;;32.60;1.00;;;;;;4967992;28;20531;-75
2023/06/29 11:40:29;;;;;;;4.27;3.67;;;32.30;1.00;;;;;;4968988;28;20476;-76
2023/06/29 11:42:57;;;;;;;8.43;5.80;;;32.00;1.00;;;;;;4968718;28;20539;-75
2023/06/29 11:45:24;;;;;;;4.40;3.87;;;31.70;1.00;;;;;;4969347;28;20543;-75
2023/06/29 11:47:57;;;;;;;4.90;4.50;;;31.60;1.00;;;;;;4962151;28;20948;-76
2023/06/29 11:50:24;;;;;;;3.93;3.63;;;31.80;1.00;;;;;;4967673;28;20547;-76
2023/06/29 11:52:52;;;;;;;3.73;3.43;;;32.30;1.00;;;;;;4971109;28;20467;-76
2023/06/29 11:55:19;;;;;;;5.07;3.90;;;33.20;1.00;;;;;;4964661;28;20930;-74
2023/06/29 11:57:52;;;;;;;3.40;3.20;;;34.20;1.00;;;;;;4957500;28;20482;-75
2023/06/29 12:00:30;;;;;;;4.70;3.20;;;35.60;1.00;;;;;;4963423;28;20449;-74
2023/06/29 12:02:58;;;;;;;5.20;4.70;;;36.90;1.00;;;;;;4967658;28;20460;-76
2023/06/29 12:05:29;;;;;;;3.13;2.90;;;36.90;1.00;;;;;;4966131;28;20539;-75
2023/06/29 12:08:04;;;;;;;4.50;3.47;;;36.50;1.00;;;;;;4960920;28;20611;-75
2023/06/29 12:10:34;;;;;;;4.10;3.70;;;37.00;1.00;;;;;;4956224;28;20467;-75
2023/06/29 12:13:04;;;;;;;3.60;3.13;;;38.40;1.00;;;;;;4967093;28;20472;-75
2023/06/29 12:15:32;;;;;;;3.60;3.30;;;38.10;1.00;;;;;;4961307;28;20491;-75
2023/06/29 12:18:09;;;;;;;4.63;3.57;;;37.40;1.00;;;;;;4959627;28;20477;-75
2023/06/29 12:20:40;;;;;;;3.70;3.40;;;36.00;1.00;;;;;;4965999;28;20475;-74
2023/06/29 12:23:08;;;;;;;7.90;4.30;;;35.20;1.00;;;;;;4965076;28;20870;-75
2023/06/29 12:25:44;;;;;;;4.07;3.77;;;35.20;1.00;;;;;;4967947;28;20579;-75
2023/06/29 12:28:12;;;;;;;3.03;2.83;;;35.40;1.00;;;;;;4959800;28;20462;-76
2023/06/29 12:30:40;;;;;;;4.13;3.67;;;34.20;1.00;;;;;;4962955;28;20560;-75
2023/06/29 12:33:07;;;;;;;4.13;3.80;;;32.70;1.00;;;;;;4962894;28;20503;-75
2023/06/29 12:35:34;;;;;;;4.10;3.70;;;32.50;1.00;;;;;;4964260;28;20476;-75
2023/06/29 12:38:01;;;;;;;4.70;4.23;;;32.20;1.00;;;;;;4966872;28;20491;-77
2023/06/29 12:40:28;;;;;;;5.93;4.80;;;31.80;1.00;;;;;;4963554;28;20456;-76
2023/06/29 12:42:56;;;;;;;4.30;3.90;;;31.70;1.00;;;;;;4962260;28;20481;-76
2023/06/29 12:45:24;;;;;;;5.03;3.80;;;31.60;1.00;;;;;;4968204;28;21213;-76
2023/06/29 12:47:51;;;;;;;4.00;3.70;;;31.40;1.00;;;;;;4966672;28;20595;-77
2023/06/29 12:50:18;;;;;;;3.80;3.60;;;31.40;1.00;;;;;;4961767;28;20585;-75
2023/06/29 12:52:48;;;;;;;4.50;4.10;;;31.30;1.00;;;;;;4965419;28;20512;-75
2023/06/29 12:55:15;;;;;;;3.80;3.50;;;31.40;1.00;;;;;;4966326;28;20461;-74
2023/06/29 12:57:43;;;;;;;5.10;4.37;;;31.90;1.00;;;;;;4965819;28;20528;-77
2023/06/29 13:00:11;;;;;;;4.30;4.00;;;32.10;1.00;;;;;;4966399;28;20459;-76
2023/06/29 13:02:40;;;;;;;5.50;5.00;;;31.50;1.00;;;;;;4964906;28;20490;-76